createdAt,value
2018-03-21T00:00:01.539Z,-0.88
2018-03-21T00:00:05.757Z,-0.89
2018-03-21T00:00:09.754Z,-0.9
2018-03-21T00:00:13.976Z,-0.9
2018-03-21T00:00:18.298Z,-0.89
2018-03-21T00:00:22.509Z,-0.9
2018-03-21T00:00:26.830Z,-0.9
2018-03-21T00:00:30.827Z,-0.89
2018-03-21T00:00:34.816Z,-0.9
2018-03-21T00:00:38.814Z,-0.89
2018-03-21T00:00:42.813Z,-0.89
2018-03-21T00:00:47.043Z,-0.89
2018-03-21T00:00:51.146Z,-0.89
2018-03-21T00:00:55.258Z,-0.9
2018-03-21T00:00:59.471Z,-0.9
2018-03-21T00:01:03.475Z,-0.9
2018-03-21T00:01:07.148Z,-0.9
2018-03-21T00:01:11.369Z,-0.9
2018-03-21T00:01:15.577Z,-0.89
2018-03-21T00:01:19.793Z,-0.89
2018-03-21T00:01:24.002Z,-0.9
2018-03-21T00:01:28.000Z,-0.88
2018-03-21T00:01:32.387Z,-0.88
2018-03-21T00:01:36.603Z,-0.89
2018-03-21T00:01:40.819Z,-0.88
2018-03-21T00:01:44.702Z,-0.89
2018-03-21T00:01:48.918Z,-0.89
2018-03-21T00:01:53.243Z,-0.89
2018-03-21T00:01:57.356Z,-0.88
2018-03-21T00:02:01.462Z,-0.88
2018-03-21T00:02:05.570Z,-0.89
2018-03-21T00:02:09.569Z,-0.89
2018-03-21T00:02:13.668Z,-0.88
2018-03-21T00:02:17.878Z,-0.89
2018-03-21T00:02:22.092Z,-0.88
2018-03-21T00:02:26.310Z,-0.89
2018-03-21T00:02:30.527Z,-0.88
2018-03-21T00:02:34.738Z,-0.88
2018-03-21T00:02:38.850Z,-0.88
2018-03-21T00:02:43.116Z,-0.89
2018-03-21T00:02:47.436Z,-0.88
2018-03-21T00:02:51.749Z,-0.88
2018-03-21T00:02:55.972Z,-0.89
2018-03-21T00:03:00.079Z,-0.89
2018-03-21T00:03:04.537Z,-0.89
2018-03-21T00:03:08.528Z,-0.88
2018-03-21T00:03:12.747Z,-0.89
2018-03-21T00:03:16.849Z,-0.89
2018-03-21T00:03:20.946Z,-0.88
2018-03-21T00:03:25.274Z,-0.88
2018-03-21T00:03:29.376Z,-0.89
2018-03-21T00:03:33.593Z,-0.88
2018-03-21T00:03:37.692Z,-0.89
2018-03-21T00:03:41.904Z,-0.9
2018-03-21T00:03:45.792Z,-0.88
2018-03-21T00:03:50.044Z,-0.9
2018-03-21T00:03:54.359Z,-0.9
2018-03-21T00:03:58.575Z,-0.89
2018-03-21T00:04:02.931Z,-0.88
2018-03-21T00:04:07.251Z,-0.89
2018-03-21T00:04:11.134Z,-0.9
2018-03-21T00:04:15.458Z,-0.89
2018-03-21T00:04:19.453Z,-0.89
2018-03-21T00:04:23.663Z,-0.89
2018-03-21T00:04:27.888Z,-0.89
2018-03-21T00:04:31.876Z,-0.9
2018-03-21T00:04:35.976Z,-0.89
2018-03-21T00:04:39.861Z,-0.89
2018-03-21T00:04:44.183Z,-0.89
2018-03-21T00:04:48.501Z,-0.89
2018-03-21T00:04:52.603Z,-0.89
2018-03-21T00:04:56.921Z,-0.9
2018-03-21T00:05:01.016Z,-0.89
2018-03-21T00:05:05.273Z,-0.9
2018-03-21T00:05:09.261Z,-0.89
2018-03-21T00:05:13.360Z,-0.89
2018-03-21T00:05:17.570Z,-0.89
2018-03-21T00:05:21.668Z,-0.89
2018-03-21T00:05:25.997Z,-0.89
2018-03-21T00:05:30.092Z,-0.89
2018-03-21T00:05:34.414Z,-0.9
2018-03-21T00:05:38.619Z,-0.89
2018-03-21T00:05:42.935Z,-0.9
2018-03-21T00:05:47.046Z,-0.88
2018-03-21T00:05:51.260Z,-0.88
2018-03-21T00:05:55.473Z,-0.88
2018-03-21T00:05:59.679Z,-0.89
2018-03-21T00:06:03.565Z,-0.88
2018-03-21T00:06:07.679Z,-0.9
2018-03-21T00:06:11.787Z,-0.89
2018-03-21T00:06:16.103Z,-0.88
2018-03-21T00:06:20.320Z,-0.89
2018-03-21T00:06:24.642Z,-0.89
2018-03-21T00:06:28.851Z,-0.9
2018-03-21T00:06:33.173Z,-0.89
2018-03-21T00:06:37.276Z,-0.89
2018-03-21T00:06:41.378Z,-0.89
2018-03-21T00:06:45.710Z,-0.9
2018-03-21T00:06:50.030Z,-0.9
2018-03-21T00:06:54.249Z,-0.89
2018-03-21T00:06:58.460Z,-0.89
2018-03-21T00:07:02.832Z,-0.9
2018-03-21T00:07:07.188Z,-0.9
2018-03-21T00:07:11.425Z,-0.9
2018-03-21T00:07:15.535Z,-0.9
2018-03-21T00:07:19.747Z,-0.9
2018-03-21T00:07:23.974Z,-0.9
2018-03-21T00:07:28.186Z,-0.9
2018-03-21T00:07:32.287Z,-0.9
2018-03-21T00:07:36.523Z,-0.9
2018-03-21T00:07:40.512Z,-0.9
2018-03-21T00:07:44.721Z,-0.9
2018-03-21T00:07:48.826Z,-0.9
2018-03-21T00:07:53.152Z,-0.9
2018-03-21T00:07:57.305Z,-0.91
2018-03-21T00:08:01.513Z,-0.9
2018-03-21T00:08:05.718Z,-0.9
2018-03-21T00:08:09.826Z,-0.9
2018-03-21T00:08:14.148Z,-0.9
2018-03-21T00:08:18.142Z,-0.9
2018-03-21T00:08:22.354Z,-0.9
2018-03-21T00:08:26.584Z,-0.9
2018-03-21T00:08:30.687Z,-0.9
2018-03-21T00:08:34.674Z,-0.89
2018-03-21T00:08:38.773Z,-0.9
2018-03-21T00:08:42.982Z,-0.89
2018-03-21T00:08:47.196Z,-0.9
2018-03-21T00:08:51.296Z,-0.91
2018-03-21T00:08:55.502Z,-0.9
2018-03-21T00:08:59.604Z,-0.9
2018-03-21T00:09:04.079Z,-0.91
2018-03-21T00:09:08.292Z,-0.9
2018-03-21T00:09:12.392Z,-0.9
2018-03-21T00:09:16.542Z,-0.9
2018-03-21T00:09:20.642Z,-0.9
2018-03-21T00:09:24.641Z,-0.89
2018-03-21T00:09:28.640Z,-0.9
2018-03-21T00:09:32.847Z,-0.89
2018-03-21T00:09:36.835Z,-0.9
2018-03-21T00:09:40.835Z,-0.9
2018-03-21T00:09:45.046Z,-0.9
2018-03-21T00:09:49.255Z,-0.89
2018-03-21T00:09:53.577Z,-0.9
2018-03-21T00:09:57.785Z,-0.89
2018-03-21T00:10:01.668Z,-0.9
2018-03-21T00:10:06.291Z,-0.9
2018-03-21T00:10:10.511Z,-0.9
2018-03-21T00:10:14.830Z,-0.91
2018-03-21T00:10:18.947Z,-0.9
2018-03-21T00:10:23.052Z,-0.9
2018-03-21T00:10:27.042Z,-0.9
2018-03-21T00:10:31.141Z,-0.9
2018-03-21T00:10:35.351Z,-0.9
2018-03-21T00:10:39.673Z,-0.9
2018-03-21T00:10:43.992Z,-0.91
2018-03-21T00:10:47.983Z,-0.9
2018-03-21T00:10:52.198Z,-0.91
2018-03-21T00:10:56.304Z,-0.91
2018-03-21T00:11:00.511Z,-0.9
2018-03-21T00:11:04.740Z,-0.89
2018-03-21T00:11:08.835Z,-0.9
2018-03-21T00:11:13.042Z,-0.9
2018-03-21T00:11:17.033Z,-0.9
2018-03-21T00:11:21.143Z,-0.91
2018-03-21T00:11:25.356Z,-0.91
2018-03-21T00:11:29.452Z,-0.91
2018-03-21T00:11:33.334Z,-0.9
2018-03-21T00:11:37.331Z,-0.91
2018-03-21T00:11:41.221Z,-0.91
2018-03-21T00:11:45.334Z,-0.91
2018-03-21T00:11:49.321Z,-0.91
2018-03-21T00:11:53.684Z,-0.91
2018-03-21T00:11:57.794Z,-0.9
2018-03-21T00:12:01.786Z,-0.91
2018-03-21T00:12:05.770Z,-0.9
2018-03-21T00:12:09.973Z,-0.91
2018-03-21T00:12:14.191Z,-0.91
2018-03-21T00:12:18.511Z,-0.91
2018-03-21T00:12:22.720Z,-0.9
2018-03-21T00:12:26.816Z,-0.91
2018-03-21T00:12:30.629Z,-0.91
2018-03-21T00:12:35.284Z,-0.91
2018-03-21T00:12:39.714Z,-0.9
2018-03-21T00:12:43.712Z,-0.91
2018-03-21T00:12:47.921Z,-0.92
2018-03-21T00:12:52.132Z,-0.91
2018-03-21T00:12:56.129Z,-0.91
2018-03-21T00:13:00.229Z,-0.91
2018-03-21T00:13:04.577Z,-0.92
2018-03-21T00:13:08.676Z,-0.92
2018-03-21T00:13:12.784Z,-0.91
2018-03-21T00:13:17.098Z,-0.92
2018-03-21T00:13:20.988Z,-0.92
2018-03-21T00:13:25.307Z,-0.91
2018-03-21T00:13:29.412Z,-0.94
2018-03-21T00:13:33.728Z,-0.92
2018-03-21T00:13:37.952Z,-0.92
2018-03-21T00:13:42.062Z,-0.91
2018-03-21T00:13:46.381Z,-0.92
2018-03-21T00:13:50.477Z,-0.92
2018-03-21T00:13:54.687Z,-0.92
2018-03-21T00:13:58.900Z,-0.92
2018-03-21T00:14:03.474Z,-0.92
2018-03-21T00:14:07.573Z,-0.93
2018-03-21T00:14:11.783Z,-0.92
2018-03-21T00:14:16.000Z,-0.92
2018-03-21T00:14:19.987Z,-0.92
2018-03-21T00:14:23.979Z,-0.92
2018-03-21T00:14:27.970Z,-0.93
2018-03-21T00:14:32.289Z,-0.92
2018-03-21T00:14:36.391Z,-0.91
2018-03-21T00:14:40.708Z,-0.93
2018-03-21T00:14:44.918Z,-0.93
2018-03-21T00:14:49.235Z,-0.92
2018-03-21T00:14:53.559Z,-0.91
2018-03-21T00:14:57.654Z,-0.92
2018-03-21T00:15:01.760Z,-0.92
2018-03-21T00:15:06.015Z,-0.91
2018-03-21T00:15:10.225Z,-0.92
2018-03-21T00:15:14.456Z,-0.93
2018-03-21T00:15:18.785Z,-0.92
2018-03-21T00:15:22.900Z,-0.93
2018-03-21T00:15:27.286Z,-0.93
2018-03-21T00:15:31.498Z,-0.92
2018-03-21T00:15:35.708Z,-0.93
2018-03-21T00:15:39.807Z,-0.92
2018-03-21T00:15:44.127Z,-0.92
2018-03-21T00:15:48.397Z,-0.92
2018-03-21T00:15:52.600Z,-0.93
2018-03-21T00:15:56.814Z,-0.92
2018-03-21T00:16:01.066Z,-0.92
2018-03-21T00:16:05.168Z,-0.93
2018-03-21T00:16:09.488Z,-0.92
2018-03-21T00:16:13.697Z,-0.93
2018-03-21T00:16:17.803Z,-0.92
2018-03-21T00:16:21.848Z,-0.92
2018-03-21T00:16:26.058Z,-0.93
2018-03-21T00:16:30.163Z,-0.94
2018-03-21T00:16:34.487Z,-0.92
2018-03-21T00:16:38.587Z,-0.93
2018-03-21T00:16:42.797Z,-0.94
2018-03-21T00:16:47.131Z,-0.93
2018-03-21T00:16:51.344Z,-0.94
2018-03-21T00:16:55.550Z,-0.94
2018-03-21T00:16:59.644Z,-0.93
2018-03-21T00:17:03.636Z,-0.94
2018-03-21T00:17:07.738Z,-0.94
2018-03-21T00:17:11.957Z,-0.94
2018-03-21T00:17:16.180Z,-0.93
2018-03-21T00:17:20.284Z,-0.93
2018-03-21T00:17:24.490Z,-0.93
2018-03-21T00:17:28.585Z,-0.94
2018-03-21T00:17:32.799Z,-0.94
2018-03-21T00:17:37.022Z,-0.95
2018-03-21T00:17:41.246Z,-0.94
2018-03-21T00:17:45.561Z,-0.94
2018-03-21T00:17:49.778Z,-0.94
2018-03-21T00:17:54.104Z,-0.94
2018-03-21T00:17:58.312Z,-0.94
2018-03-21T00:18:02.860Z,-0.95
2018-03-21T00:18:06.750Z,-0.94
2018-03-21T00:18:10.957Z,-0.94
2018-03-21T00:18:14.942Z,-0.94
2018-03-21T00:18:19.041Z,-0.94
2018-03-21T00:18:23.254Z,-0.94
2018-03-21T00:18:27.503Z,-0.95
2018-03-21T00:18:31.818Z,-0.94
2018-03-21T00:18:35.918Z,-0.94
2018-03-21T00:18:40.132Z,-0.95
2018-03-21T00:18:44.349Z,-0.94
2018-03-21T00:18:48.564Z,-0.94
2018-03-21T00:18:52.886Z,-0.95
2018-03-21T00:18:57.215Z,-0.94
2018-03-21T00:19:01.206Z,-0.94
2018-03-21T00:19:05.200Z,-0.94
2018-03-21T00:19:09.690Z,-0.94
2018-03-21T00:19:13.911Z,-0.95
2018-03-21T00:19:18.011Z,-0.95
2018-03-21T00:19:22.220Z,-0.94
2018-03-21T00:19:26.324Z,-0.95
2018-03-21T00:19:30.317Z,-0.95
2018-03-21T00:19:34.417Z,-0.96
2018-03-21T00:19:38.625Z,-0.94
2018-03-21T00:19:42.737Z,-0.96
2018-03-21T00:19:46.836Z,-0.95
2018-03-21T00:19:51.161Z,-0.94
2018-03-21T00:19:55.480Z,-0.95
2018-03-21T00:19:59.806Z,-0.95
2018-03-21T00:20:03.838Z,-0.94
2018-03-21T00:20:07.828Z,-0.95
2018-03-21T00:20:11.929Z,-0.95
2018-03-21T00:20:15.925Z,-0.95
2018-03-21T00:20:20.022Z,-0.95
2018-03-21T00:20:24.338Z,-0.96
2018-03-21T00:20:28.553Z,-0.96
2018-03-21T00:20:32.755Z,-0.95
2018-03-21T00:20:36.960Z,-0.96
2018-03-21T00:20:40.955Z,-0.95
2018-03-21T00:20:45.073Z,-0.96
2018-03-21T00:20:49.074Z,-0.96
2018-03-21T00:20:53.066Z,-0.96
2018-03-21T00:20:57.271Z,-0.96
2018-03-21T00:21:01.421Z,-0.95
2018-03-21T00:21:05.412Z,-0.96
2018-03-21T00:21:09.404Z,-0.96
2018-03-21T00:21:13.508Z,-0.96
2018-03-21T00:21:17.389Z,-0.96
2018-03-21T00:21:21.378Z,-0.96
2018-03-21T00:21:25.696Z,-0.95
2018-03-21T00:21:29.686Z,-0.96
2018-03-21T00:21:33.890Z,-0.96
2018-03-21T00:21:37.994Z,-0.97
2018-03-21T00:21:42.099Z,-0.96
2018-03-21T00:21:46.307Z,-0.96
2018-03-21T00:21:50.641Z,-0.96
2018-03-21T00:21:54.958Z,-0.97
2018-03-21T00:21:59.164Z,-0.96
2018-03-21T00:22:03.367Z,-0.96
2018-03-21T00:22:07.584Z,-0.96
2018-03-21T00:22:11.790Z,-0.96
2018-03-21T00:22:16.115Z,-0.96
2018-03-21T00:22:20.360Z,-0.96
2018-03-21T00:22:24.679Z,-0.96
2018-03-21T00:22:28.782Z,-0.97
2018-03-21T00:22:32.889Z,-0.96
2018-03-21T00:22:36.989Z,-0.96
2018-03-21T00:22:40.984Z,-0.97
2018-03-21T00:22:44.759Z,-0.97
2018-03-21T00:22:49.081Z,-0.96
2018-03-21T00:22:53.076Z,-0.97
2018-03-21T00:22:57.178Z,-0.96
2018-03-21T00:23:01.394Z,-0.97
2018-03-21T00:23:05.861Z,-0.96
2018-03-21T00:23:09.962Z,-0.96
2018-03-21T00:23:14.169Z,-0.96
2018-03-21T00:23:18.488Z,-0.96
2018-03-21T00:23:22.587Z,-0.96
2018-03-21T00:23:26.809Z,-0.96
2018-03-21T00:23:31.127Z,-0.96
2018-03-21T00:23:35.341Z,-0.97
2018-03-21T00:23:39.588Z,-0.97
2018-03-21T00:23:43.692Z,-0.96
2018-03-21T00:23:47.922Z,-0.96
2018-03-21T00:23:52.134Z,-0.96
2018-03-21T00:23:56.016Z,-0.96
2018-03-21T00:24:00.231Z,-0.96
2018-03-21T00:24:04.225Z,-0.96
2018-03-21T00:24:08.103Z,-0.96
2018-03-21T00:24:12.321Z,-0.97
2018-03-21T00:24:16.418Z,-0.96
2018-03-21T00:24:20.521Z,-0.96
2018-03-21T00:24:24.622Z,-0.96
2018-03-21T00:24:28.738Z,-0.96
2018-03-21T00:24:32.729Z,-0.95
2018-03-21T00:24:36.839Z,-0.97
2018-03-21T00:24:40.736Z,-0.95
2018-03-21T00:24:44.827Z,-0.96
2018-03-21T00:24:49.044Z,-0.95
2018-03-21T00:24:53.045Z,-0.96
2018-03-21T00:24:57.265Z,-0.95
2018-03-21T00:25:01.588Z,-0.96
2018-03-21T00:25:06.107Z,-0.97
2018-03-21T00:25:10.214Z,-0.97
2018-03-21T00:25:14.423Z,-0.96
2018-03-21T00:25:18.632Z,-0.96
2018-03-21T00:25:22.632Z,-0.96
2018-03-21T00:25:26.979Z,-0.96
2018-03-21T00:25:30.970Z,-0.96
2018-03-21T00:25:35.079Z,-0.96
2018-03-21T00:25:39.191Z,-0.97
2018-03-21T00:25:43.289Z,-0.96
2018-03-21T00:25:47.388Z,-0.95
2018-03-21T00:25:51.277Z,-0.96
2018-03-21T00:25:55.605Z,-0.95
2018-03-21T00:25:59.948Z,-0.95
2018-03-21T00:26:04.348Z,-0.94
2018-03-21T00:26:08.452Z,-0.95
2018-03-21T00:26:12.667Z,-0.96
2018-03-21T00:26:16.985Z,-0.95
2018-03-21T00:26:21.190Z,-0.95
2018-03-21T00:26:25.408Z,-0.95
2018-03-21T00:26:29.622Z,-0.95
2018-03-21T00:26:33.725Z,-0.95
2018-03-21T00:26:38.041Z,-0.94
2018-03-21T00:26:42.368Z,-0.94
2018-03-21T00:26:46.579Z,-0.95
2018-03-21T00:26:50.786Z,-0.95
2018-03-21T00:26:54.993Z,-0.95
2018-03-21T00:26:59.094Z,-0.94
2018-03-21T00:27:03.018Z,-0.95
2018-03-21T00:27:06.904Z,-0.95
2018-03-21T00:27:11.002Z,-0.94
2018-03-21T00:27:15.211Z,-0.93
2018-03-21T00:27:19.309Z,-0.93
2018-03-21T00:27:23.412Z,-0.94
2018-03-21T00:27:27.525Z,-0.95
2018-03-21T00:27:31.737Z,-0.92
2018-03-21T00:27:35.832Z,-0.94
2018-03-21T00:27:39.719Z,-0.93
2018-03-21T00:27:43.926Z,-0.93
2018-03-21T00:27:48.132Z,-0.93
2018-03-21T00:27:52.344Z,-0.93
2018-03-21T00:27:56.549Z,-0.93
2018-03-21T00:28:00.756Z,-0.93
2018-03-21T00:28:05.054Z,-0.93
2018-03-21T00:28:09.270Z,-0.93
2018-03-21T00:28:13.595Z,-0.94
2018-03-21T00:28:17.922Z,-0.93
2018-03-21T00:28:21.914Z,-0.93
2018-03-21T00:28:26.126Z,-0.93
2018-03-21T00:28:30.226Z,-0.93
2018-03-21T00:28:34.563Z,-0.93
2018-03-21T00:28:38.770Z,-0.95
2018-03-21T00:28:42.767Z,-0.93
2018-03-21T00:28:46.978Z,-0.92
2018-03-21T00:28:51.300Z,-0.93
2018-03-21T00:28:55.613Z,-0.93
2018-03-21T00:28:59.723Z,-0.94
2018-03-21T00:29:03.956Z,-0.93
2018-03-21T00:29:07.837Z,-0.93
2018-03-21T00:29:12.154Z,-0.94
2018-03-21T00:29:16.360Z,-0.95
2018-03-21T00:29:20.355Z,-0.94
2018-03-21T00:29:24.670Z,-0.94
2018-03-21T00:29:28.884Z,-0.93
2018-03-21T00:29:33.090Z,-0.94
2018-03-21T00:29:37.198Z,-0.95
2018-03-21T00:29:41.299Z,-0.94
2018-03-21T00:29:45.611Z,-0.94
2018-03-21T00:29:49.816Z,-0.94
2018-03-21T00:29:54.155Z,-0.94
2018-03-21T00:29:58.253Z,-0.94
2018-03-21T00:30:02.488Z,-0.94
2018-03-21T00:30:06.533Z,-0.95
2018-03-21T00:30:10.850Z,-0.95
2018-03-21T00:30:14.946Z,-0.95
2018-03-21T00:30:19.158Z,-0.95
2018-03-21T00:30:22.935Z,-0.95
2018-03-21T00:30:27.149Z,-0.95
2018-03-21T00:30:31.353Z,-0.96
2018-03-21T00:30:35.575Z,-0.96
2018-03-21T00:30:39.569Z,-0.96
2018-03-21T00:30:43.565Z,-0.96
2018-03-21T00:30:47.564Z,-0.96
2018-03-21T00:30:51.774Z,-0.95
2018-03-21T00:30:56.091Z,-0.97
2018-03-21T00:31:00.189Z,-0.97
2018-03-21T00:31:04.282Z,-0.96
2018-03-21T00:31:08.283Z,-0.96
2018-03-21T00:31:12.491Z,-0.96
2018-03-21T00:31:16.701Z,-0.97
2018-03-21T00:31:20.696Z,-0.96
2018-03-21T00:31:24.917Z,-0.97
2018-03-21T00:31:29.243Z,-0.96
2018-03-21T00:31:33.342Z,-0.97
2018-03-21T00:31:37.441Z,-0.97
2018-03-21T00:31:41.545Z,-0.97
2018-03-21T00:31:45.803Z,-0.96
2018-03-21T00:31:49.978Z,-0.97
2018-03-21T00:31:54.087Z,-0.97
2018-03-21T00:31:58.189Z,-0.97
2018-03-21T00:32:02.395Z,-0.97
2018-03-21T00:32:06.500Z,-0.97
2018-03-21T00:32:10.725Z,-0.97
2018-03-21T00:32:15.042Z,-0.97
2018-03-21T00:32:19.143Z,-0.97
2018-03-21T00:32:23.355Z,-0.97
2018-03-21T00:32:27.463Z,-0.98
2018-03-21T00:32:31.797Z,-0.97
2018-03-21T00:32:35.919Z,-0.98
2018-03-21T00:32:40.132Z,-0.98
2018-03-21T00:32:44.032Z,-0.97
2018-03-21T00:32:48.355Z,-0.98
2018-03-21T00:32:52.681Z,-0.97
2018-03-21T00:32:56.798Z,-0.98
2018-03-21T00:33:00.898Z,-0.98
2018-03-21T00:33:04.894Z,-0.97
2018-03-21T00:33:09.107Z,-0.98
2018-03-21T00:33:13.435Z,-0.97
2018-03-21T00:33:17.756Z,-0.98
2018-03-21T00:33:21.966Z,-0.98
2018-03-21T00:33:26.075Z,-0.98
2018-03-21T00:33:30.403Z,-0.98
2018-03-21T00:33:34.608Z,-0.98
2018-03-21T00:33:38.864Z,-0.98
2018-03-21T00:33:42.972Z,-0.98
2018-03-21T00:33:47.229Z,-0.98
2018-03-21T00:33:51.332Z,-0.98
2018-03-21T00:33:55.651Z,-0.98
2018-03-21T00:33:59.860Z,-0.98
2018-03-21T00:34:03.742Z,-0.98
2018-03-21T00:34:07.729Z,-0.98
2018-03-21T00:34:11.939Z,-0.99
2018-03-21T00:34:16.148Z,-0.99
2018-03-21T00:34:20.469Z,-0.99
2018-03-21T00:34:24.568Z,-0.99
2018-03-21T00:34:28.729Z,-0.99
2018-03-21T00:34:32.832Z,-0.99
2018-03-21T00:34:36.823Z,-0.98
2018-03-21T00:34:40.922Z,-0.99
2018-03-21T00:34:45.021Z,-0.99
2018-03-21T00:34:49.229Z,-0.99
2018-03-21T00:34:53.223Z,-0.99
2018-03-21T00:34:57.441Z,-0.99
2018-03-21T00:35:01.543Z,-0.99
2018-03-21T00:35:05.650Z,-0.99
2018-03-21T00:35:09.755Z,-0.99
2018-03-21T00:35:13.959Z,-0.98
2018-03-21T00:35:18.069Z,-0.99
2018-03-21T00:35:22.389Z,-0.98
2018-03-21T00:35:26.604Z,-0.99
2018-03-21T00:35:30.813Z,-0.98
2018-03-21T00:35:35.131Z,-0.99
2018-03-21T00:35:39.228Z,-0.99
2018-03-21T00:35:43.445Z,-0.99
2018-03-21T00:35:47.546Z,-0.99
2018-03-21T00:35:51.613Z,-0.99
2018-03-21T00:35:55.652Z,-1
2018-03-21T00:35:59.972Z,-0.99
2018-03-21T00:36:03.958Z,-0.99
2018-03-21T00:36:08.073Z,-0.99
2018-03-21T00:36:12.064Z,-0.98
2018-03-21T00:36:16.275Z,-0.99
2018-03-21T00:36:20.483Z,-1
2018-03-21T00:36:24.691Z,-1
2018-03-21T00:36:29.015Z,-1
2018-03-21T00:36:33.135Z,-0.99
2018-03-21T00:36:37.344Z,-1
2018-03-21T00:36:41.328Z,-1
2018-03-21T00:36:45.422Z,-0.99
2018-03-21T00:36:49.419Z,-0.99
2018-03-21T00:36:53.413Z,-0.99
2018-03-21T00:36:57.408Z,-0.99
2018-03-21T00:37:01.728Z,-1
2018-03-21T00:37:06.051Z,-0.99
2018-03-21T00:37:10.052Z,-0.98
2018-03-21T00:37:14.152Z,-0.99
2018-03-21T00:37:18.351Z,-0.99
2018-03-21T00:37:22.603Z,-0.99
2018-03-21T00:37:26.813Z,-0.99
2018-03-21T00:37:31.032Z,-0.99
2018-03-21T00:37:35.130Z,-0.99
2018-03-21T00:37:39.340Z,-0.99
2018-03-21T00:37:43.461Z,-0.99
2018-03-21T00:37:47.672Z,-0.99
2018-03-21T00:37:51.887Z,-0.99
2018-03-21T00:37:56.201Z,-0.99
2018-03-21T00:38:00.532Z,-0.99
2018-03-21T00:38:04.419Z,-0.99
2018-03-21T00:38:08.455Z,-0.99
2018-03-21T00:38:12.664Z,-1
2018-03-21T00:38:16.767Z,-0.98
2018-03-21T00:38:20.979Z,-0.99
2018-03-21T00:38:25.192Z,-0.99
2018-03-21T00:38:29.188Z,-0.99
2018-03-21T00:38:33.292Z,-0.99
2018-03-21T00:38:37.509Z,-0.99
2018-03-21T00:38:41.731Z,-0.99
2018-03-21T00:38:45.949Z,-0.99
2018-03-21T00:38:50.178Z,-1
2018-03-21T00:38:54.387Z,-0.98
2018-03-21T00:38:58.606Z,-1
2018-03-21T00:39:02.848Z,-1
2018-03-21T00:39:07.163Z,-0.99
2018-03-21T00:39:11.373Z,-0.99
2018-03-21T00:39:15.690Z,-0.99
2018-03-21T00:39:19.901Z,-1
2018-03-21T00:39:24.100Z,-1
2018-03-21T00:39:28.233Z,-0.99
2018-03-21T00:39:32.442Z,-0.99
2018-03-21T00:39:36.764Z,-0.99
2018-03-21T00:39:40.886Z,-0.99
2018-03-21T00:39:44.875Z,-0.98
2018-03-21T00:39:48.976Z,-1
2018-03-21T00:39:52.976Z,-1
2018-03-21T00:39:57.080Z,-0.99
2018-03-21T00:40:01.409Z,-1
2018-03-21T00:40:05.512Z,-1
2018-03-21T00:40:09.730Z,-0.99
2018-03-21T00:40:13.719Z,-0.99
2018-03-21T00:40:17.923Z,-0.99
2018-03-21T00:40:21.912Z,-1
2018-03-21T00:40:26.119Z,-0.99
2018-03-21T00:40:30.220Z,-1
2018-03-21T00:40:34.426Z,-0.99
2018-03-21T00:40:38.418Z,-1
2018-03-21T00:40:42.409Z,-1
2018-03-21T00:40:46.734Z,-1
2018-03-21T00:40:50.840Z,-1
2018-03-21T00:40:55.155Z,-1
2018-03-21T00:40:59.155Z,-0.99
2018-03-21T00:41:03.404Z,-1
2018-03-21T00:41:07.414Z,-0.99
2018-03-21T00:41:11.628Z,-0.99
2018-03-21T00:41:15.837Z,-0.99
2018-03-21T00:41:19.932Z,-0.99
2018-03-21T00:41:24.146Z,-0.99
2018-03-21T00:41:28.471Z,-1
2018-03-21T00:41:32.791Z,-0.99
2018-03-21T00:41:36.778Z,-0.99
2018-03-21T00:41:41.090Z,-0.99
2018-03-21T00:41:45.200Z,-1
2018-03-21T00:41:49.406Z,-0.99
2018-03-21T00:41:53.664Z,-0.99
2018-03-21T00:41:57.872Z,-0.99
2018-03-21T00:42:02.179Z,-0.99
2018-03-21T00:42:06.288Z,-0.99
2018-03-21T00:42:10.396Z,-0.99
2018-03-21T00:42:14.652Z,-0.99
2018-03-21T00:42:18.426Z,-0.99
2018-03-21T00:42:22.537Z,-1
2018-03-21T00:42:26.650Z,-1
2018-03-21T00:42:30.859Z,-0.99
2018-03-21T00:42:34.858Z,-0.99
2018-03-21T00:42:38.963Z,-0.99
2018-03-21T00:42:43.083Z,-0.98
2018-03-21T00:42:47.327Z,-0.99
2018-03-21T00:42:51.747Z,-0.98
2018-03-21T00:42:56.125Z,-0.99
2018-03-21T00:43:00.124Z,-0.99
2018-03-21T00:43:04.533Z,-0.99
2018-03-21T00:43:08.522Z,-0.99
2018-03-21T00:43:12.734Z,-0.99
2018-03-21T00:43:16.843Z,-0.98
2018-03-21T00:43:20.943Z,-0.99
2018-03-21T00:43:25.164Z,-0.99
2018-03-21T00:43:29.157Z,-0.99
2018-03-21T00:43:33.472Z,-0.99
2018-03-21T00:43:37.465Z,-0.99
2018-03-21T00:43:41.567Z,-0.98
2018-03-21T00:43:45.894Z,-0.99
2018-03-21T00:43:50.104Z,-0.99
2018-03-21T00:43:54.321Z,-0.98
2018-03-21T00:43:58.421Z,-0.98
2018-03-21T00:44:02.766Z,-0.99
2018-03-21T00:44:06.866Z,-0.99
2018-03-21T00:44:11.182Z,-0.99
2018-03-21T00:44:15.282Z,-0.98
2018-03-21T00:44:19.607Z,-0.98
2018-03-21T00:44:23.827Z,-0.98
2018-03-21T00:44:27.988Z,-0.98
2018-03-21T00:44:32.314Z,-0.98
2018-03-21T00:44:36.651Z,-0.98
2018-03-21T00:44:40.978Z,-0.99
2018-03-21T00:44:45.184Z,-0.98
2018-03-21T00:44:49.397Z,-0.98
2018-03-21T00:44:53.281Z,-0.98
2018-03-21T00:44:57.490Z,-0.98
2018-03-21T00:45:01.814Z,-0.97
2018-03-21T00:45:05.876Z,-0.98
2018-03-21T00:45:10.115Z,-0.98
2018-03-21T00:45:14.439Z,-0.98
2018-03-21T00:45:18.642Z,-0.98
2018-03-21T00:45:22.530Z,-0.98
2018-03-21T00:45:26.636Z,-0.99
2018-03-21T00:45:30.623Z,-0.98
2018-03-21T00:45:34.414Z,-0.98
2018-03-21T00:45:38.623Z,-0.98
2018-03-21T00:45:42.723Z,-0.98
2018-03-21T00:45:46.821Z,-0.98
2018-03-21T00:45:50.922Z,-0.98
2018-03-21T00:45:55.024Z,-0.98
2018-03-21T00:45:59.129Z,-0.98
2018-03-21T00:46:03.704Z,-0.98
2018-03-21T00:46:07.585Z,-0.97
2018-03-21T00:46:11.905Z,-0.98
2018-03-21T00:46:16.001Z,-0.98
2018-03-21T00:46:19.999Z,-0.97
2018-03-21T00:46:24.210Z,-0.98
2018-03-21T00:46:28.314Z,-0.98
2018-03-21T00:46:32.527Z,-0.98
2018-03-21T00:46:36.529Z,-0.97
2018-03-21T00:46:40.416Z,-0.97
2018-03-21T00:46:44.461Z,-0.97
2018-03-21T00:46:48.672Z,-0.98
2018-03-21T00:46:52.988Z,-0.98
2018-03-21T00:46:57.093Z,-0.97
2018-03-21T00:47:01.412Z,-0.97
2018-03-21T00:47:05.511Z,-0.97
2018-03-21T00:47:09.615Z,-0.97
2018-03-21T00:47:13.821Z,-0.97
2018-03-21T00:47:17.815Z,-0.97
2018-03-21T00:47:21.808Z,-0.98
2018-03-21T00:47:26.067Z,-0.97
2018-03-21T00:47:30.288Z,-0.96
2018-03-21T00:47:34.166Z,-0.97
2018-03-21T00:47:38.164Z,-0.96
2018-03-21T00:47:42.474Z,-0.96
2018-03-21T00:47:46.572Z,-0.96
2018-03-21T00:47:50.824Z,-0.96
2018-03-21T00:47:54.718Z,-0.95
2018-03-21T00:47:58.811Z,-0.97
2018-03-21T00:48:03.120Z,-0.95
2018-03-21T00:48:07.222Z,-0.96
2018-03-21T00:48:11.430Z,-0.96
2018-03-21T00:48:15.633Z,-0.96
2018-03-21T00:48:19.731Z,-0.95
2018-03-21T00:48:23.901Z,-0.96
2018-03-21T00:48:28.005Z,-0.96
2018-03-21T00:48:32.213Z,-0.96
2018-03-21T00:48:36.092Z,-0.96
2018-03-21T00:48:40.091Z,-0.96
2018-03-21T00:48:44.190Z,-0.96
2018-03-21T00:48:48.399Z,-0.96
2018-03-21T00:48:52.394Z,-0.96
2018-03-21T00:48:56.495Z,-0.96
2018-03-21T00:49:00.826Z,-0.97
2018-03-21T00:49:05.131Z,-0.96
2018-03-21T00:49:09.013Z,-0.96
2018-03-21T00:49:13.230Z,-0.96
2018-03-21T00:49:17.347Z,-0.96
2018-03-21T00:49:21.569Z,-0.96
2018-03-21T00:49:25.669Z,-0.96
2018-03-21T00:49:29.666Z,-0.95
2018-03-21T00:49:33.884Z,-0.96
2018-03-21T00:49:37.986Z,-0.96
2018-03-21T00:49:42.094Z,-0.95
2018-03-21T00:49:46.412Z,-0.96
2018-03-21T00:49:50.528Z,-0.95
2018-03-21T00:49:54.737Z,-0.96
2018-03-21T00:49:59.062Z,-0.95
2018-03-21T00:50:03.582Z,-0.95
2018-03-21T00:50:07.808Z,-0.96
2018-03-21T00:50:12.020Z,-0.96
2018-03-21T00:50:16.228Z,-0.95
2018-03-21T00:50:20.324Z,-0.96
2018-03-21T00:50:24.636Z,-0.96
2018-03-21T00:50:28.850Z,-0.96
2018-03-21T00:50:32.958Z,-0.96
2018-03-21T00:50:37.061Z,-0.96
2018-03-21T00:50:41.056Z,-0.96
2018-03-21T00:50:45.155Z,-0.96
2018-03-21T00:50:49.368Z,-0.97
2018-03-21T00:50:53.588Z,-0.95
2018-03-21T00:50:57.585Z,-0.96
2018-03-21T00:51:01.906Z,-0.96
2018-03-21T00:51:06.012Z,-0.96
2018-03-21T00:51:10.110Z,-0.96
2018-03-21T00:51:14.204Z,-0.96
2018-03-21T00:51:18.303Z,-0.96
2018-03-21T00:51:22.572Z,-0.97
2018-03-21T00:51:26.784Z,-0.96
2018-03-21T00:51:30.993Z,-0.96
2018-03-21T00:51:35.212Z,-0.96
2018-03-21T00:51:39.313Z,-0.97
2018-03-21T00:51:43.413Z,-0.96
2018-03-21T00:51:47.617Z,-0.96
2018-03-21T00:51:51.720Z,-0.97
2018-03-21T00:51:55.818Z,-0.96
2018-03-21T00:52:00.131Z,-0.96
2018-03-21T00:52:04.357Z,-0.96
2018-03-21T00:52:08.502Z,-0.97
2018-03-21T00:52:12.599Z,-0.96
2018-03-21T00:52:16.826Z,-0.97
2018-03-21T00:52:20.709Z,-0.96
2018-03-21T00:52:24.806Z,-0.97
2018-03-21T00:52:28.902Z,-0.96
2018-03-21T00:52:33.005Z,-0.96
2018-03-21T00:52:37.217Z,-0.96
2018-03-21T00:52:41.316Z,-0.96
2018-03-21T00:52:45.416Z,-0.97
2018-03-21T00:52:49.529Z,-0.97
2018-03-21T00:52:53.733Z,-0.96
2018-03-21T00:52:57.834Z,-0.95
2018-03-21T00:53:01.831Z,-0.97
2018-03-21T00:53:06.075Z,-0.98
2018-03-21T00:53:10.286Z,-0.96
2018-03-21T00:53:14.391Z,-0.97
2018-03-21T00:53:18.402Z,-0.96
2018-03-21T00:53:22.508Z,-0.96
2018-03-21T00:53:26.857Z,-0.97
2018-03-21T00:53:31.069Z,-0.97
2018-03-21T00:53:35.164Z,-0.96
2018-03-21T00:53:39.263Z,-0.97
2018-03-21T00:53:43.369Z,-0.98
2018-03-21T00:53:47.584Z,-0.97
2018-03-21T00:53:51.898Z,-0.96
2018-03-21T00:53:56.102Z,-0.97